Time;durP1;ratioP1;P1;durP2;ratioP2;P2;SDS_P1;SDS_P2;PMS_P1;PMS_P2;Temp;Humidity;BMP_temperature;BMP_pressure;BME280_temperature;BME280_humidity;BME280_pressure;Samples;Min_cycle;Max_cycle;Signal;HPM_P1;HPM_P2
2023/06/05 00:00:11;;;;;;;1.10;0.60;;;13.60;99.90;;;;;;7401425;19;20264;-70
2023/06/05 00:02:43;;;;;;;1.33;0.70;;;13.60;99.90;;;;;;7400897;19;19970;-70
2023/06/05 00:05:12;;;;;;;0.98;0.60;;;13.40;99.90;;;;;;7400228;19;19918;-70
2023/06/05 00:07:41;;;;;;;1.23;0.70;;;13.40;99.90;;;;;;7399669;19;19926;-70
2023/06/05 00:10:11;;;;;;;1.40;0.60;;;13.30;99.90;;;;;;7401986;19;19922;-71
2023/06/05 00:12:41;;;;;;;0.70;0.60;;;13.40;99.90;;;;;;7401983;19;19925;-70
2023/06/05 00:15:11;;;;;;;1.58;0.90;;;13.30;99.90;;;;;;7399529;19;19923;-70
2023/06/05 00:17:45;;;;;;;0.90;0.75;;;13.40;99.90;;;;;;7402531;19;19922;-70
2023/06/05 00:20:14;;;;;;;0.90;0.60;;;13.50;99.90;;;;;;7400662;19;19918;-70
2023/06/05 00:22:44;;;;;;;2.75;0.70;;;13.30;99.90;;;;;;7399584;19;19970;-70
2023/06/05 00:25:14;;;;;;;1.55;0.70;;;13.40;99.90;;;;;;7400558;19;19933;-70
2023/06/05 00:27:43;;;;;;;1.23;0.90;;;13.40;99.90;;;;;;7402010;19;19925;-70
2023/06/05 00:30:13;;;;;;;0.70;0.60;;;13.40;99.90;;;;;;7398284;19;20854;-70
2023/06/05 00:32:45;;;;;;;0.90;0.70;;;13.40;99.90;;;;;;7400375;19;19923;-70
2023/06/05 00:35:13;;;;;;;;;;;13.00;99.90;;;;;;7401704;19;19927;-70
2023/06/05 00:37:43;;;;;;;1.15;0.80;;;13.40;99.90;;;;;;7399962;19;19922;-70
2023/06/05 00:40:12;;;;;;;0.68;0.60;;;13.40;99.90;;;;;;7402113;19;19922;-70
2023/06/05 00:42:41;;;;;;;1.15;0.85;;;13.40;99.90;;;;;;7400295;19;19950;-70
2023/06/05 00:45:11;;;;;;;1.13;0.80;;;13.30;99.90;;;;;;7400308;19;19978;-71
2023/06/05 00:47:40;;;;;;;1.42;0.80;;;13.30;99.90;;;;;;7398140;19;20409;-70
2023/06/05 00:50:14;;;;;;;1.70;0.70;;;13.30;99.90;;;;;;7398001;19;19918;-70
2023/06/05 00:52:45;;;;;;;1.90;0.70;;;13.30;99.90;;;;;;7406154;19;19918;-71
2023/06/05 00:55:14;;;;;;;1.38;0.70;;;13.40;99.90;;;;;;7403291;19;19998;-70
2023/06/05 00:57:44;;;;;;;1.88;0.95;;;13.20;99.90;;;;;;7404463;19;19933;-70
2023/06/05 01:00:15;;;;;;;2.83;0.88;;;13.30;99.90;;;;;;7406739;19;19918;-71
2023/06/05 01:02:44;;;;;;;1.58;0.80;;;13.40;99.90;;;;;;7405262;19;19938;-71
2023/06/05 01:05:17;;;;;;;1.05;0.95;;;13.10;99.90;;;;;;7402664;19;20316;-70
2023/06/05 01:07:47;;;;;;;0.90;0.80;;;13.10;99.90;;;;;;7406265;19;19922;-70
2023/06/05 01:10:17;;;;;;;1.85;0.90;;;13.20;99.90;;;;;;7405488;19;19958;-71
2023/06/05 01:13:06;;;;;;;1.25;0.60;;;13.10;99.90;;;;;;7401949;19;19919;-70
2023/06/05 01:15:37;;;;;;;0.70;0.68;;;13.30;99.90;;;;;;7405321;19;20247;-71
2023/06/05 01:18:06;;;;;;;0.80;0.80;;;13.10;99.90;;;;;;7407777;19;19926;-70
2023/06/05 01:20:39;;;;;;;0.95;0.70;;;13.00;99.90;;;;;;7405308;19;19921;-70
2023/06/05 01:23:11;;;;;;;1.40;0.80;;;13.00;99.90;;;;;;7405134;19;19926;-70
2023/06/05 01:25:41;;;;;;;0.70;0.55;;;13.10;99.90;;;;;;7406311;19;19915;-70
2023/06/05 01:28:17;;;;;;;1.30;0.90;;;12.90;99.90;;;;;;7405380;19;19919;-70
2023/06/05 01:30:52;;;;;;;0.90;0.63;;;12.80;99.90;;;;;;7402929;19;20013;-70
2023/06/05 01:33:29;;;;;;;1.65;0.90;;;12.90;99.90;;;;;;7407496;19;20265;-70
2023/06/05 01:36:04;;;;;;;0.98;0.80;;;12.90;99.90;;;;;;7405639;19;19929;-70
2023/06/05 01:38:36;;;;;;;1.40;0.77;;;12.90;99.90;;;;;;7405845;19;19964;-70
2023/06/05 01:41:06;;;;;;;0.93;0.75;;;12.70;99.90;;;;;;7405382;19;19926;-70
2023/06/05 01:43:36;;;;;;;0.93;0.73;;;12.90;99.90;;;;;;7405146;19;19919;-70
2023/06/05 01:46:07;;;;;;;1.20;0.75;;;12.70;99.90;;;;;;7404482;19;19936;-70
2023/06/05 01:48:38;;;;;;;1.50;0.85;;;12.80;99.90;;;;;;7401938;19;20266;-70
2023/06/05 01:51:07;;;;;;;1.42;0.98;;;12.80;99.90;;;;;;7400546;19;19944;-70
2023/06/05 01:53:39;;;;;;;1.50;0.98;;;12.60;99.90;;;;;;7401854;19;20578;-70
2023/06/05 01:56:08;;;;;;;2.15;0.77;;;12.80;99.90;;;;;;7402524;19;20448;-70
2023/06/05 01:58:38;;;;;;;1.38;0.73;;;12.70;99.90;;;;;;7401337;19;19925;-70
2023/06/05 02:01:07;;;;;;;1.02;0.75;;;12.80;99.90;;;;;;7399612;19;19910;-71
2023/06/05 02:03:37;;;;;;;0.80;0.70;;;12.80;99.90;;;;;;7401115;19;19923;-70
2023/06/05 02:06:06;;;;;;;1.50;1.10;;;12.80;99.90;;;;;;7396692;19;19950;-70
2023/06/05 02:08:37;;;;;;;1.00;0.90;;;12.80;99.90;;;;;;7401504;19;19966;-70
2023/06/05 02:11:09;;;;;;;0.63;0.63;;;12.90;99.90;;;;;;7400376;19;19925;-70
2023/06/05 02:13:40;;;;;;;1.63;0.70;;;12.70;99.90;;;;;;7402711;19;19918;-70
2023/06/05 02:16:13;;;;;;;0.85;0.80;;;12.70;99.90;;;;;;7401906;19;19919;-70
2023/06/05 02:18:44;;;;;;;2.22;0.88;;;12.80;99.90;;;;;;7402649;19;19982;-70
2023/06/05 02:21:14;;;;;;;1.00;0.85;;;12.70;99.90;;;;;;7400302;19;19919;-70
2023/06/05 02:23:46;;;;;;;1.00;0.60;;;12.60;99.90;;;;;;7398303;19;19929;-70
2023/06/05 02:26:17;;;;;;;0.68;0.63;;;12.70;99.90;;;;;;7401056;19;19929;-70
2023/06/05 02:28:46;;;;;;;0.80;0.80;;;12.60;99.90;;;;;;7399515;19;19922;-70
2023/06/05 02:31:15;;;;;;;1.52;0.70;;;12.60;99.90;;;;;;7399768;19;19970;-70
2023/06/05 02:33:44;;;;;;;0.82;0.70;;;12.50;99.90;;;;;;7400579;19;19918;-69
2023/06/05 02:36:15;;;;;;;1.40;0.88;;;12.40;99.90;;;;;;7401640;19;19926;-70
2023/06/05 02:38:49;;;;;;;1.05;0.63;;;12.30;99.90;;;;;;7401126;19;19947;-70
2023/06/05 02:41:19;;;;;;;1.67;0.75;;;12.40;99.90;;;;;;7400986;19;19926;-70
2023/06/05 02:43:48;;;;;;;1.60;0.82;;;12.20;99.90;;;;;;7400084;19;19918;-70
2023/06/05 02:46:17;;;;;;;1.13;0.77;;;12.20;99.90;;;;;;7255042;19;2825529;-70
2023/06/05 02:48:46;;;;;;;0.80;0.70;;;12.00;99.90;;;;;;7402741;19;19927;-70
2023/06/05 02:51:15;;;;;;;0.70;0.70;;;12.10;99.90;;;;;;7399449;19;19921;-70
2023/06/05 02:53:46;;;;;;;1.05;0.82;;;12.00;99.90;;;;;;7402267;19;20317;-70
2023/06/05 02:56:15;;;;;;;0.88;0.70;;;11.90;99.90;;;;;;7403748;19;19978;-70
2023/06/05 02:58:46;;;;;;;0.80;0.80;;;11.90;99.90;;;;;;7400973;19;19923;-70
2023/06/05 03:01:15;;;;;;;1.15;0.73;;;11.70;99.90;;;;;;7402951;19;20288;-70
2023/06/05 03:03:44;;;;;;;0.70;0.70;;;11.80;99.90;;;;;;7401994;19;19915;-70
2023/06/05 03:06:17;;;;;;;1.00;0.90;;;11.70;99.90;;;;;;7397961;19;19974;-70
2023/06/05 03:08:48;;;;;;;1.95;0.77;;;12.60;99.90;;;;;;7399687;19;20345;-71
2023/06/05 03:11:17;;;;;;;1.42;0.80;;;11.70;99.90;;;;;;7402298;19;19962;-70
2023/06/05 03:13:46;;;;;;;1.42;0.70;;;11.40;99.90;;;;;;7399801;19;20290;-71
2023/06/05 03:16:17;;;;;;;0.98;0.70;;;11.40;99.90;;;;;;7400898;19;20260;-70
2023/06/05 03:18:46;;;;;;;0.63;0.63;;;11.40;99.90;;;;;;7403323;19;19922;-70
2023/06/05 03:21:15;;;;;;;1.17;0.75;;;11.30;99.90;;;;;;7404187;19;19993;-70
2023/06/05 03:23:44;;;;;;;1.00;0.70;;;11.20;99.90;;;;;;7401555;19;19923;-70
2023/06/05 03:26:15;;;;;;;0.85;0.85;;;11.20;99.90;;;;;;7404296;19;19943;-70
2023/06/05 03:28:46;;;;;;;1.10;0.80;;;11.30;99.90;;;;;;7402053;19;19933;-69
2023/06/05 03:31:15;;;;;;;1.10;0.80;;;11.30;99.90;;;;;;7401814;19;19914;-70
2023/06/05 03:33:44;;;;;;;1.40;0.80;;;11.10;99.90;;;;;;7402887;19;19957;-70
2023/06/05 03:36:15;;;;;;;0.80;0.80;;;11.10;99.90;;;;;;7402123;19;19910;-70
2023/06/05 03:38:44;;;;;;;1.95;0.75;;;11.20;99.90;;;;;;7400761;19;19919;-69
2023/06/05 03:41:15;;;;;;;1.00;0.77;;;11.00;99.90;;;;;;7402845;19;19918;-69
2023/06/05 03:43:46;;;;;;;1.02;0.70;;;11.10;99.90;;;;;;7401601;19;20380;-70
2023/06/05 03:46:17;;;;;;;1.67;0.80;;;11.00;99.90;;;;;;7401683;19;19926;-70
2023/06/05 03:48:46;;;;;;;1.27;0.80;;;11.10;99.90;;;;;;7401473;19;19930;-70
2023/06/05 03:51:18;;;;;;;1.42;0.90;;;11.00;99.90;;;;;;7402466;19;19922;-70
2023/06/05 03:53:54;;;;;;;1.05;1.00;;;10.80;99.90;;;;;;7403197;19;19917;-70
2023/06/05 03:56:28;;;;;;;1.10;0.80;;;11.00;99.90;;;;;;7401913;19;19928;-70
2023/06/05 03:58:58;;;;;;;1.25;0.70;;;11.00;99.90;;;;;;7401808;19;19929;-69
2023/06/05 04:01:26;;;;;;;1.20;0.80;;;11.00;99.90;;;;;;7401235;19;19962;-70
2023/06/05 04:03:55;;;;;;;1.42;0.82;;;10.90;99.90;;;;;;7402766;19;19930;-70
2023/06/05 04:06:24;;;;;;;1.35;0.85;;;11.00;99.90;;;;;;7402303;19;20420;-70
2023/06/05 04:08:54;;;;;;;1.27;0.80;;;11.00;99.90;;;;;;7401499;19;19922;-70
2023/06/05 04:11:26;;;;;;;1.00;0.75;;;11.00;99.90;;;;;;7401408;19;19933;-71
2023/06/05 04:13:55;;;;;;;1.30;0.70;;;10.90;99.90;;;;;;7401443;19;19922;-70
2023/06/05 04:16:24;;;;;;;0.70;0.70;;;11.00;99.90;;;;;;7401552;19;19927;-70
2023/06/05 04:18:53;;;;;;;0.65;0.65;;;11.00;99.90;;;;;;7399824;19;19923;-70
2023/06/05 04:21:22;;;;;;;0.70;0.70;;;11.00;99.90;;;;;;7400661;19;19981;-70
2023/06/05 04:23:51;;;;;;;0.73;0.73;;;11.10;99.90;;;;;;7401325;19;19926;-70
2023/06/05 04:26:21;;;;;;;0.98;0.80;;;11.00;99.90;;;;;;7400369;19;19932;-70
2023/06/05 04:28:55;;;;;;;0.93;0.90;;;11.00;99.90;;;;;;7398693;19;20018;-69
2023/06/05 04:31:25;;;;;;;0.82;0.73;;;11.10;99.90;;;;;;7397927;19;19950;-70
2023/06/05 04:33:54;;;;;;;1.08;0.90;;;11.00;99.90;;;;;;7399226;19;20333;-70
2023/06/05 04:36:23;;;;;;;0.80;0.80;;;11.20;99.90;;;;;;7399791;19;19926;-69
2023/06/05 04:38:52;;;;;;;0.80;0.60;;;11.20;99.90;;;;;;7399351;19;19923;-71
2023/06/05 04:41:21;;;;;;;0.80;0.70;;;11.30;99.90;;;;;;7400887;19;19922;-69
2023/06/05 04:43:54;;;;;;;0.82;0.70;;;11.20;99.90;;;;;;7399517;19;19926;-70
2023/06/05 04:46:23;;;;;;;0.60;0.60;;;11.20;99.90;;;;;;7399450;19;19926;-69
2023/06/05 04:48:55;;;;;;;0.75;0.75;;;11.30;99.90;;;;;;7399549;19;19926;-70
2023/06/05 04:51:24;;;;;;;0.90;0.52;;;11.30;99.90;;;;;;7400648;19;20264;-69
2023/06/05 04:53:55;;;;;;;0.90;0.80;;;11.30;99.90;;;;;;7396797;19;20005;-70
2023/06/05 04:56:24;;;;;;;0.57;0.57;;;11.50;99.90;;;;;;7400381;19;19947;-70
2023/06/05 04:58:56;;;;;;;0.63;0.60;;;11.60;99.90;;;;;;7398599;19;19935;-71
2023/06/05 05:01:27;;;;;;;0.68;0.45;;;11.50;99.90;;;;;;7400794;19;19919;-70
2023/06/05 05:03:56;;;;;;;0.90;0.60;;;11.70;99.90;;;;;;7397682;19;19930;-69
2023/06/05 05:06:25;;;;;;;0.70;0.70;;;11.80;99.90;;;;;;7399317;19;19927;-69
2023/06/05 05:08:54;;;;;;;0.75;0.50;;;11.80;99.90;;;;;;7399999;19;19986;-69
2023/06/05 05:11:23;;;;;;;0.50;0.50;;;11.80;99.90;;;;;;7399632;19;19939;-70
2023/06/05 05:13:56;;;;;;;0.55;0.50;;;11.80;99.90;;;;;;7397120;19;19942;-70
2023/06/05 05:16:25;;;;;;;0.50;0.50;;;11.80;99.90;;;;;;7398221;19;19926;-71
2023/06/05 05:18:54;;;;;;;0.60;0.60;;;12.00;99.90;;;;;;7400385;19;19998;-70
2023/06/05 05:21:23;;;;;;;0.57;0.50;;;11.70;99.90;;;;;;7398237;19;19915;-70
2023/06/05 05:23:52;;;;;;;0.60;0.40;;;12.10;99.90;;;;;;7398074;19;19942;-70
2023/06/05 05:26:21;;;;;;;0.50;0.45;;;12.00;99.90;;;;;;7397316;19;19927;-70
2023/06/05 05:28:51;;;;;;;0.30;0.30;;;12.10;99.90;;;;;;7398502;19;20272;-70
2023/06/05 05:31:23;;;;;;;0.60;0.50;;;12.10;99.90;;;;;;7397607;19;20361;-70
2023/06/05 05:33:52;;;;;;;0.75;0.50;;;12.20;99.90;;;;;;7397503;19;19918;-70
2023/06/05 05:36:21;;;;;;;0.40;0.40;;;12.10;99.90;;;;;;7401542;19;19923;-70
2023/06/05 05:38:50;;;;;;;0.75;0.47;;;12.30;99.90;;;;;;7404543;19;19933;-70
2023/06/05 05:41:20;;;;;;;0.52;0.35;;;12.30;99.90;;;;;;7402923;19;20361;-70
2023/06/05 05:43:49;;;;;;;0.52;0.50;;;12.30;99.90;;;;;;7402316;19;20297;-70
2023/06/05 05:46:18;;;;;;;0.30;0.30;;;12.20;99.90;;;;;;7400362;19;20341;-69
2023/06/05 05:48:51;;;;;;;0.75;0.68;;;12.50;99.90;;;;;;7404327;19;20029;-70
2023/06/05 05:51:21;;;;;;;0.40;0.40;;;12.40;99.90;;;;;;7402664;19;20235;-70
2023/06/05 05:53:50;;;;;;;0.77;0.50;;;12.30;99.90;;;;;;7401108;19;19982;-70
2023/06/05 05:56:19;;;;;;;0.50;0.50;;;12.50;99.90;;;;;;7403038;19;19923;-70
2023/06/05 05:58:48;;;;;;;1.38;0.70;;;12.50;99.90;;;;;;7403064;19;19922;-70
2023/06/05 06:01:17;;;;;;;0.55;0.50;;;12.40;99.90;;;;;;7402673;19;19974;-71
2023/06/05 06:03:46;;;;;;;1.52;0.50;;;12.30;99.90;;;;;;7396807;19;19926;-70
2023/06/05 06:06:17;;;;;;;0.60;0.50;;;12.40;99.90;;;;;;7399580;19;20015;-75
2023/06/05 06:08:46;;;;;;;0.75;0.38;;;12.30;99.90;;;;;;7405702;19;19926;-74
2023/06/05 06:11:16;;;;;;;0.40;0.40;;;12.30;99.90;;;;;;7404963;19;20302;-72
2023/06/05 06:13:45;;;;;;;0.40;0.32;;;12.40;99.90;;;;;;7403638;19;19922;-73
2023/06/05 06:16:15;;;;;;;0.80;0.40;;;12.30;99.90;;;;;;7401395;19;20366;-72
2023/06/05 06:18:44;;;;;;;1.25;0.50;;;12.50;99.90;;;;;;7403769;19;20269;-74
2023/06/05 06:21:12;;;;;;;0.85;0.43;;;12.40;99.90;;;;;;7404454;19;20663;-75
2023/06/05 06:23:44;;;;;;;0.73;0.40;;;12.40;99.90;;;;;;7402300;19;19943;-71
2023/06/05 06:26:14;;;;;;;;;;;12.50;99.90;;;;;;7404676;19;20253;-72
2023/06/05 06:28:43;;;;;;;0.20;0.20;;;12.40;99.90;;;;;;7402053;19;19922;-72
2023/06/05 06:31:13;;;;;;;0.40;0.40;;;12.40;99.90;;;;;;7397798;19;19926;-71
2023/06/05 06:33:44;;;;;;;0.77;0.40;;;12.60;99.90;;;;;;7402219;19;20363;-72
2023/06/05 06:36:13;;;;;;;0.60;0.40;;;12.50;99.90;;;;;;7402894;19;19922;-71
2023/06/05 06:38:45;;;;;;;0.60;0.35;;;12.70;99.90;;;;;;7403990;19;19939;-71
2023/06/05 06:41:14;;;;;;;0.45;0.30;;;12.70;99.90;;;;;;7403094;19;19968;-72
2023/06/05 06:43:43;;;;;;;0.43;0.30;;;12.80;99.90;;;;;;7402807;19;19943;-71
2023/06/05 06:46:12;;;;;;;0.57;0.40;;;12.80;99.90;;;;;;7402155;19;19922;-72
2023/06/05 06:48:41;;;;;;;1.08;0.30;;;12.80;99.90;;;;;;7399391;19;20023;-71
2023/06/05 06:51:10;;;;;;;1.45;0.30;;;12.90;99.90;;;;;;7401760;19;19947;-71
2023/06/05 06:53:40;;;;;;;1.10;0.32;;;12.90;99.90;;;;;;7396748;19;19925;-72
2023/06/05 06:56:11;;;;;;;1.40;0.50;;;13.10;99.90;;;;;;7402408;19;19925;-71
2023/06/05 06:58:41;;;;;;;0.50;0.45;;;13.20;99.90;;;;;;7401778;19;19926;-71
2023/06/05 07:01:11;;;;;;;1.48;0.47;;;13.10;99.90;;;;;;7399578;19;20249;-71
2023/06/05 07:03:41;;;;;;;1.58;0.40;;;13.10;99.90;;;;;;7397740;19;20345;-71
2023/06/05 07:06:12;;;;;;;0.50;0.40;;;13.30;99.90;;;;;;7399367;19;19998;-71
2023/06/05 07:08:41;;;;;;;0.30;0.30;;;13.30;99.90;;;;;;7403434;19;19923;-71
2023/06/05 07:11:12;;;;;;;0.55;0.40;;;13.40;99.90;;;;;;7403284;19;19934;-71
2023/06/05 07:13:41;;;;;;;0.50;0.50;;;13.40;99.90;;;;;;7402448;19;19974;-71
2023/06/05 07:16:10;;;;;;;1.20;0.40;;;13.50;99.90;;;;;;7404717;19;19919;-71
2023/06/05 07:18:40;;;;;;;0.45;0.40;;;13.50;99.90;;;;;;7404734;19;19915;-71
2023/06/05 07:21:09;;;;;;;0.73;0.40;;;13.40;99.90;;;;;;7402154;19;19939;-71
2023/06/05 07:23:39;;;;;;;0.80;0.40;;;13.50;99.90;;;;;;7401967;19;19923;-71
2023/06/05 07:26:08;;;;;;;0.45;0.40;;;13.70;99.90;;;;;;7400145;19;19921;-71
2023/06/05 07:28:39;;;;;;;0.45;0.40;;;13.80;99.90;;;;;;7403838;19;20347;-71
2023/06/05 07:31:08;;;;;;;0.40;0.38;;;13.70;99.90;;;;;;7401856;19;19922;-72
2023/06/05 07:33:38;;;;;;;0.40;0.40;;;13.80;99.90;;;;;;7398291;19;19922;-71
2023/06/05 07:36:07;;;;;;;0.40;0.30;;;13.70;99.90;;;;;;7401340;19;19922;-71
2023/06/05 07:38:38;;;;;;;0.95;0.40;;;13.90;99.90;;;;;;7402933;19;20361;-71
2023/06/05 07:41:07;;;;;;;0.65;0.40;;;13.90;99.90;;;;;;7402517;19;19922;-71
2023/06/05 07:43:39;;;;;;;0.40;0.40;;;14.10;99.90;;;;;;7401988;19;19926;-71
2023/06/05 07:46:08;;;;;;;1.05;0.40;;;14.00;99.90;;;;;;7400920;19;19930;-71
2023/06/05 07:48:38;;;;;;;0.43;0.43;;;13.90;99.90;;;;;;7403143;19;20373;-71
2023/06/05 07:51:08;;;;;;;1.17;0.50;;;14.20;99.90;;;;;;7403061;19;19915;-71
2023/06/05 07:53:37;;;;;;;0.30;0.30;;;14.10;99.90;;;;;;7402380;19;19925;-71
2023/06/05 07:56:06;;;;;;;0.60;0.50;;;14.10;99.90;;;;;;7401930;19;19974;-71
2023/06/05 07:58:35;;;;;;;0.63;0.50;;;14.20;99.90;;;;;;7402407;19;19930;-71
2023/06/05 08:01:07;;;;;;;0.65;0.45;;;14.20;99.90;;;;;;7400845;19;19929;-71
2023/06/05 08:03:35;;;;;;;;;;;14.20;99.90;;;;;;7405344;19;19926;-72
2023/06/05 08:06:04;;;;;;;0.63;0.40;;;14.40;99.90;;;;;;7399641;19;20398;-71
2023/06/05 08:08:33;;;;;;;0.50;0.40;;;14.40;99.90;;;;;;7401791;19;19947;-71
2023/06/05 08:11:02;;;;;;;0.43;0.43;;;14.50;99.90;;;;;;7400185;19;19922;-72
2023/06/05 08:13:31;;;;;;;0.63;0.40;;;14.40;99.90;;;;;;7399168;19;19922;-71
2023/06/05 08:16:00;;;;;;;1.15;0.50;;;14.60;99.90;;;;;;7401179;19;19918;-72
2023/06/05 08:18:32;;;;;;;1.33;0.52;;;14.50;99.90;;;;;;7399980;19;19939;-71
2023/06/05 08:21:01;;;;;;;0.50;0.50;;;14.60;99.90;;;;;;7399179;19;20006;-72
2023/06/05 08:23:30;;;;;;;0.40;0.40;;;14.50;99.90;;;;;;7401053;19;19930;-72
2023/06/05 08:25:59;;;;;;;0.90;0.50;;;14.70;99.90;;;;;;7400910;19;20798;-72
2023/06/05 08:28:28;;;;;;;0.32;0.30;;;14.70;99.90;;;;;;7400000;19;20025;-71
2023/06/05 08:30:57;;;;;;;1.63;0.50;;;14.70;99.90;;;;;;7400677;19;20593;-71
2023/06/05 08:33:26;;;;;;;0.50;0.50;;;14.80;99.90;;;;;;7402943;19;19929;-71
2023/06/05 08:35:58;;;;;;;0.68;0.40;;;14.90;99.90;;;;;;7398252;19;19926;-71
2023/06/05 08:38:27;;;;;;;0.40;0.40;;;15.00;99.90;;;;;;7399836;19;20471;-72
2023/06/05 08:41:02;;;;;;;0.82;0.50;;;15.00;99.90;;;;;;7400550;19;19929;-72
2023/06/05 08:43:31;;;;;;;0.70;0.40;;;15.00;99.90;;;;;;7400754;19;19929;-72
2023/06/05 08:46:00;;;;;;;0.80;0.60;;;15.20;99.90;;;;;;7398784;19;19922;-71
2023/06/05 08:48:34;;;;;;;0.50;0.50;;;15.30;99.90;;;;;;7396941;19;19931;-71
2023/06/05 08:51:09;;;;;;;0.93;0.60;;;15.20;99.90;;;;;;7398126;19;19925;-72
2023/06/05 08:53:41;;;;;;;0.73;0.43;;;15.20;99.90;;;;;;7398771;19;19934;-72
2023/06/05 08:56:10;;;;;;;0.40;0.40;;;15.30;99.90;;;;;;7397965;19;20287;-71
2023/06/05 08:58:40;;;;;;;0.70;0.52;;;15.20;99.90;;;;;;7400296;19;19921;-72
2023/06/05 09:01:09;;;;;;;0.50;0.40;;;15.30;99.90;;;;;;7398542;19;19922;-71
2023/06/05 09:03:38;;;;;;;0.60;0.60;;;15.20;99.90;;;;;;7398057;19;19926;-72
2023/06/05 09:06:11;;;;;;;0.93;0.60;;;15.30;99.90;;;;;;7398866;19;19919;-71
2023/06/05 09:08:41;;;;;;;0.70;0.40;;;15.30;99.90;;;;;;7399316;19;19926;-71
2023/06/05 09:11:28;;;;;;;0.73;0.47;;;15.30;99.90;;;;;;7395378;19;19974;-71
2023/06/05 09:13:58;;;;;;;0.40;0.35;;;15.40;99.90;;;;;;7405425;19;19925;-72
2023/06/05 09:16:37;;;;;;;0.38;0.32;;;15.20;99.90;;;;;;7404968;19;19926;-72
2023/06/05 09:19:07;;;;;;;0.63;0.60;;;15.60;99.90;;;;;;7404894;19;19926;-72
2023/06/05 09:21:39;;;;;;;0.77;0.40;;;15.50;99.90;;;;;;7404243;19;19982;-71
2023/06/05 09:24:19;;;;;;;0.75;0.63;;;15.70;99.90;;;;;;7406104;19;19923;-72
2023/06/05 09:26:57;;;;;;;0.98;0.50;;;15.80;99.90;;;;;;7406856;19;19923;-72
2023/06/05 09:29:28;;;;;;;0.60;0.60;;;15.90;99.90;;;;;;7405482;19;19918;-72
2023/06/05 09:31:59;;;;;;;0.40;0.30;;;16.20;99.90;;;;;;7403804;19;19997;-72
2023/06/05 09:34:30;;;;;;;0.52;0.50;;;16.30;99.90;;;;;;7404490;19;19919;-72
2023/06/05 09:37:04;;;;;;;2.75;0.50;;;16.40;99.90;;;;;;7402356;19;19974;-73
2023/06/05 09:39:34;;;;;;;0.68;0.38;;;15.70;99.90;;;;;;7406573;19;19927;-72
2023/06/05 09:42:03;;;;;;;0.70;0.47;;;16.70;99.90;;;;;;7405370;19;19950;-71
2023/06/05 09:44:32;;;;;;;0.50;0.50;;;16.70;99.90;;;;;;7405357;19;19922;-72
2023/06/05 09:47:05;;;;;;;0.70;0.70;;;16.80;99.90;;;;;;7407006;19;19974;-71
2023/06/05 09:49:35;;;;;;;0.50;0.40;;;16.90;99.90;;;;;;7404200;19;19922;-72
2023/06/05 09:52:07;;;;;;;0.80;0.55;;;16.90;99.90;;;;;;7404096;19;19926;-71
2023/06/05 09:54:38;;;;;;;0.82;0.60;;;16.90;99.90;;;;;;7403058;19;19925;-72
2023/06/05 09:57:09;;;;;;;0.63;0.50;;;17.10;99.90;;;;;;7405048;19;19918;-72
2023/06/05 09:59:47;;;;;;;1.40;0.40;;;17.30;99.90;;;;;;7402744;19;19922;-71
2023/06/05 10:02:18;;;;;;;1.60;0.40;;;17.40;99.90;;;;;;7403942;19;19961;-71
2023/06/05 10:04:50;;;;;;;0.38;0.30;;;17.40;99.90;;;;;;7402929;19;20341;-70
2023/06/05 10:07:23;;;;;;;0.60;0.40;;;17.50;99.90;;;;;;7402242;19;19997;-71
2023/06/05 10:09:53;;;;;;;0.40;0.40;;;17.60;99.90;;;;;;7402128;19;20377;-71
2023/06/05 10:12:22;;;;;;;1.20;0.55;;;17.50;99.90;;;;;;7403369;19;19930;-71
2023/06/05 10:14:52;;;;;;;0.75;0.75;;;17.60;99.90;;;;;;7402748;19;20293;-71
2023/06/05 10:17:21;;;;;;;0.50;0.40;;;17.80;99.90;;;;;;7403216;19;19921;-71
2023/06/05 10:19:50;;;;;;;0.80;0.50;;;17.90;99.90;;;;;;7404441;19;19918;-71
2023/06/05 10:22:23;;;;;;;0.50;0.50;;;17.90;99.90;;;;;;7403187;19;19937;-70
2023/06/05 10:25:00;;;;;;;0.73;0.60;;;18.00;99.90;;;;;;7403689;19;19927;-81
2023/06/05 10:27:46;;;;;;;0.40;0.40;;;18.00;99.90;;;;;;7404125;19;19922;-80
2023/06/05 10:30:51;;;;;;;0.50;0.50;;;18.00;99.90;;;;;;7405429;19;19978;-80
2023/06/05 10:33:31;;;;;;;0.75;0.47;;;18.20;99.90;;;;;;7402371;19;19919;-78
2023/06/05 10:36:10;;;;;;;0.75;0.40;;;18.40;99.90;;;;;;7401284;19;19998;-84
2023/06/05 10:38:44;;;;;;;0.20;0.20;;;18.50;99.90;;;;;;7405890;19;19982;-82
2023/06/05 10:41:13;;;;;;;0.65;0.55;;;18.60;99.90;;;;;;7404194;19;19923;-78
2023/06/05 10:43:50;;;;;;;0.50;0.50;;;18.90;99.90;;;;;;7401397;19;19919;-83
2023/06/05 10:46:33;;;;;;;0.30;0.30;;;18.80;99.90;;;;;;7403440;19;19925;-78
2023/06/05 10:49:15;;;;;;;0.77;0.47;;;18.80;99.90;;;;;;7401993;19;20332;-70
2023/06/05 10:51:46;;;;;;;2.72;0.50;;;19.00;99.90;;;;;;7404392;19;20286;-76
2023/06/05 10:54:40;;;;;;;0.40;0.40;;;19.10;99.90;;;;;;7403652;19;19989;-75
2023/06/05 10:57:09;;;;;;;0.45;0.45;;;19.00;99.90;;;;;;7402871;19;19919;-77
2023/06/05 10:59:39;;;;;;;0.30;0.30;;;18.90;99.90;;;;;;7403153;19;19922;-76
2023/06/05 11:02:29;;;;;;;0.50;0.47;;;19.10;99.90;;;;;;7404696;19;19940;-77
2023/06/05 11:05:23;;;;;;;0.88;0.50;;;18.90;99.90;;;;;;7402420;19;19923;-77
2023/06/05 11:08:13;;;;;;;0.75;0.60;;;18.90;99.90;;;;;;7402281;19;20000;-77
2023/06/05 11:11:05;;;;;;;1.23;0.40;;;19.00;99.90;;;;;;7403418;19;19918;-73
2023/06/05 11:13:59;;;;;;;0.38;0.38;;;19.00;99.90;;;;;;7399227;19;19926;-77
2023/06/05 11:16:29;;;;;;;1.00;0.45;;;19.30;99.90;;;;;;7403610;19;19923;-79
2023/06/05 11:19:29;;;;;;;0.82;0.40;;;19.40;99.90;;;;;;7401448;19;19918;-76
2023/06/05 11:22:11;;;;;;;0.85;0.50;;;19.40;99.90;;;;;;7403446;19;20479;-76
2023/06/05 11:24:40;;;;;;;0.30;0.30;;;19.30;99.90;;;;;;7403815;19;19929;-71
2023/06/05 11:27:50;;;;;;;0.40;0.40;;;19.30;99.90;;;;;;7403056;19;19947;-71
2023/06/05 11:30:20;;;;;;;0.98;0.40;;;19.50;99.90;;;;;;7401968;19;19946;-72
2023/06/05 11:32:51;;;;;;;0.38;0.38;;;19.40;99.90;;;;;;7402068;19;20538;-72
2023/06/05 11:35:23;;;;;;;0.30;0.30;;;19.40;99.90;;;;;;7398827;19;19929;-72
2023/06/05 11:38:10;;;;;;;0.40;0.40;;;19.70;99.90;;;;;;7401959;19;19937;-72
2023/06/05 11:40:40;;;;;;;0.50;0.50;;;19.80;99.90;;;;;;7401653;19;19926;-72
2023/06/05 11:43:13;;;;;;;0.50;0.50;;;19.90;99.90;;;;;;7399023;19;19939;-72
2023/06/05 11:45:44;;;;;;;0.52;0.40;;;19.80;99.90;;;;;;7402298;19;20423;-72
2023/06/05 11:48:15;;;;;;;0.57;0.50;;;19.70;99.90;;;;;;7400410;19;20337;-71
2023/06/05 11:50:54;;;;;;;1.73;0.60;;;19.60;99.90;;;;;;7402029;19;19926;-71
2023/06/05 11:53:24;;;;;;;0.40;0.40;;;19.90;99.90;;;;;;7401634;19;19986;-71
2023/06/05 11:56:06;;;;;;;1.10;0.50;;;19.80;99.90;;;;;;7401360;19;20011;-71
2023/06/05 11:58:39;;;;;;;0.60;0.50;;;19.60;99.90;;;;;;7402050;19;19930;-71
2023/06/05 12:01:14;;;;;;;1.02;0.60;;;20.00;99.90;;;;;;7403233;19;19946;-71
2023/06/05 12:03:44;;;;;;;0.80;0.47;;;20.20;99.90;;;;;;7400398;19;19926;-72
2023/06/05 12:06:15;;;;;;;0.55;0.50;;;20.60;99.90;;;;;;7400030;19;19933;-72
2023/06/05 12:08:45;;;;;;;0.43;0.40;;;20.60;99.90;;;;;;7401216;19;20335;-72
2023/06/05 12:11:29;;;;;;;1.50;0.60;;;20.70;99.90;;;;;;7401355;19;20159;-72
2023/06/05 12:14:00;;;;;;;0.40;0.40;;;20.50;99.90;;;;;;7400959;19;19923;-72
2023/06/05 12:16:33;;;;;;;;;;;20.50;99.90;;;;;;7402178;19;19919;-72
2023/06/05 12:19:03;;;;;;;0.50;0.43;;;20.50;99.90;;;;;;7401525;19;19937;-72
2023/06/05 12:21:32;;;;;;;1.30;0.50;;;20.70;99.90;;;;;;7400974;19;19936;-72
2023/06/05 12:24:05;;;;;;;0.40;0.40;;;20.90;99.90;;;;;;7400805;19;20564;-71
2023/06/05 12:26:53;;;;;;;0.55;0.55;;;21.20;99.90;;;;;;7399857;19;19985;-72
2023/06/05 12:29:28;;;;;;;0.70;0.60;;;21.10;99.90;;;;;;7400453;19;20272;-72
2023/06/05 12:31:57;;;;;;;0.75;0.70;;;21.30;99.90;;;;;;7400369;19;19926;-72
2023/06/05 12:34:44;;;;;;;0.85;0.65;;;21.30;99.90;;;;;;7402376;19;19919;-72
2023/06/05 12:37:13;;;;;;;0.50;0.50;;;21.50;99.90;;;;;;7401576;19;19990;-72
2023/06/05 12:39:42;;;;;;;0.68;0.63;;;21.40;99.90;;;;;;7400880;19;19991;-72
2023/06/05 12:42:12;;;;;;;0.77;0.63;;;21.50;99.90;;;;;;7398129;19;19915;-71
2023/06/05 12:44:44;;;;;;;0.60;0.50;;;21.40;99.90;;;;;;7398078;19;19919;-72
2023/06/05 12:47:13;;;;;;;;;;;21.40;99.90;;;;;;7408830;19;19942;-72
2023/06/05 12:49:42;;;;;;;1.02;0.50;;;21.30;99.90;;;;;;7403927;19;20292;-72
2023/06/05 12:52:11;;;;;;;1.95;0.70;;;21.50;99.90;;;;;;7406768;19;19927;-72
2023/06/05 12:54:40;;;;;;;1.75;0.60;;;21.50;99.90;;;;;;7405409;19;19930;-72
2023/06/05 12:57:10;;;;;;;1.17;0.60;;;21.40;99.90;;;;;;7407114;19;20484;-72
2023/06/05 12:59:39;;;;;;;1.10;0.60;;;21.60;99.90;;;;;;7404274;19;19926;-72
2023/06/05 13:02:10;;;;;;;0.50;0.43;;;21.30;99.90;;;;;;7405778;19;19918;-72
2023/06/05 13:04:39;;;;;;;2.13;0.77;;;21.50;99.90;;;;;;7406963;19;19922;-72
2023/06/05 13:07:11;;;;;;;0.95;0.65;;;21.30;99.90;;;;;;7405765;19;20315;-72
2023/06/05 13:09:40;;;;;;;0.85;0.60;;;21.50;99.90;;;;;;7407085;19;20321;-72